Time;durP1;ratioP1;P1;durP2;ratioP2;P2;SDS_P1;SDS_P2;PMS_P1;PMS_P2;Temp;Humidity;BMP_temperature;BMP_pressure;BME280_temperature;BME280_humidity;BME280_pressure;Samples;Min_cycle;Max_cycle;Signal;HPM_P1;HPM_P2
2022/06/10 00:02:11;;;;;;;7.03;3.33;;;;;;;;;;5050241;28;20626;-72
2022/06/10 00:04:37;;;;;;;8.05;3.85;;;;;;;;;;5050033;28;20429;-71
2022/06/10 00:07:03;;;;;;;7.25;3.63;;;;;;;;;;5050290;28;20067;-71
2022/06/10 00:09:28;;;;;;;11.13;4.25;;;;;;;;;;5049056;28;20037;-71
2022/06/10 00:11:54;;;;;;;7.63;3.67;;;;;;;;;;5050218;28;20111;-71
2022/06/10 00:14:20;;;;;;;9.60;4.00;;;;;;;;;;5050093;28;20033;-72
2022/06/10 00:16:46;;;;;;;8.10;4.00;;;;;;;;;;5069959;28;20056;-71
2022/06/10 00:19:12;;;;;;;6.00;3.90;;;;;;;;;;5070089;28;20039;-71
2022/06/10 00:21:38;;;;;;;7.38;3.72;;;;;;;;;;5070093;28;20076;-71
2022/06/10 00:24:04;;;;;;;6.18;3.90;;;;;;;;;;5068410;28;20048;-71
2022/06/10 00:26:30;;;;;;;6.43;3.83;;;;;;;;;;5067787;28;20026;-71
2022/06/10 00:28:56;;;;;;;7.47;3.75;;;;;;;;;;5051046;28;20040;-71
2022/06/10 00:31:21;;;;;;;7.80;4.10;;;;;;;;;;5046980;28;20063;-72
2022/06/10 00:33:47;;;;;;;10.93;4.90;;;;;;;;;;5049537;28;20060;-71
2022/06/10 00:36:15;;;;;;;8.45;4.00;;;;;;;;;;5049902;28;20454;-71
2022/06/10 00:38:41;;;;;;;6.38;3.72;;;;;;;;;;5048234;28;20044;-73
2022/06/10 00:41:07;;;;;;;8.00;4.32;;;;;;;;;;5049548;28;20029;-72
2022/06/10 00:43:36;;;;;;;8.52;4.25;;;;;;;;;;5049950;28;20032;-72
2022/06/10 00:46:22;;;;;;;7.22;4.28;;;;;;;;;;5050176;28;20029;-72
2022/06/10 00:49:14;;;;;;;7.55;3.90;;;;;;;;;;5049803;28;20394;-72
2022/06/10 00:51:48;;;;;;;7.55;3.55;;;;;;;;;;5049961;28;20485;-72
2022/06/10 00:54:16;;;;;;;7.82;3.90;;;;;;;;;;5049702;28;20036;-71
2022/06/10 00:56:48;;;;;;;10.52;3.97;;;;;;;;;;5048612;28;20037;-72
2022/06/10 00:59:25;;;;;;;10.07;3.80;;;;;;;;;;5049343;28;20029;-71
2022/06/10 01:01:56;;;;;;;8.40;4.25;;;;;;;;;;5048372;28;20040;-71
2022/06/10 01:04:24;;;;;;;7.75;3.38;;;;;;;;;;5047883;28;20039;-71
2022/06/10 01:06:50;;;;;;;8.68;3.85;;;;;;;;;;5047817;28;20680;-72
2022/06/10 01:09:16;;;;;;;8.90;4.10;;;;;;;;;;5049367;28;20040;-71
2022/06/10 01:12:27;;;;;;;8.27;4.10;;;;;;;;;;5050980;28;20025;-71
2022/06/10 01:14:59;;;;;;;8.23;3.92;;;;;;;;;;5052565;28;20028;-72
2022/06/10 01:17:46;;;;;;;8.40;4.22;;;;;;;;;;5053512;28;20490;-72
2022/06/10 01:20:36;;;;;;;8.10;4.20;;;;;;;;;;5053446;28;20037;-71
2022/06/10 01:23:36;;;;;;;7.07;3.90;;;;;;;;;;5053438;28;20482;-71
2022/06/10 01:27:47;;;;;;;8.23;4.28;;;;;;;;;;5053328;28;20473;-71
2022/06/10 01:29:33;;;;;;;10.32;5.53;;;;;;;;;;5053055;28;20028;-72
2022/06/10 01:32:04;;;;;;;8.32;4.53;;;;;;;;;;5053119;28;20516;-71
2022/06/10 01:34:36;;;;;;;11.63;5.30;;;;;;;;;;5052895;28;20055;-71
2022/06/10 01:37:15;;;;;;;8.13;4.47;;;;;;;;;;5053020;28;20405;-72
2022/06/10 01:39:58;;;;;;;8.73;4.68;;;;;;;;;;5053039;28;20021;-72
2022/06/10 01:42:36;;;;;;;9.52;5.18;;;;;;;;;;5052858;28;20382;-72
2022/06/10 01:45:35;;;;;;;11.20;5.03;;;;;;;;;;5051391;28;20036;-72
2022/06/10 01:48:11;;;;;;;9.38;4.78;;;;;;;;;;5052901;28;20513;-71
2022/06/10 01:50:56;;;;;;;13.50;5.28;;;;;;;;;;5054832;28;20036;-71
2022/06/10 01:53:33;;;;;;;8.48;5.00;;;;;;;;;;5053013;28;20032;-71
2022/06/10 01:56:09;;;;;;;9.35;5.13;;;;;;;;;;5052611;28;20028;-71
2022/06/10 01:58:53;;;;;;;7.45;4.53;;;;;;;;;;5052884;28;20059;-71
2022/06/10 02:01:26;;;;;;;8.25;4.43;;;;;;;;;;5055091;28;20040;-71
2022/06/10 02:04:02;;;;;;;9.18;4.45;;;;;;;;;;5055292;28;20047;-71
2022/06/10 02:06:35;;;;;;;8.40;4.47;;;;;;;;;;5054246;28;20036;-71
2022/06/10 02:09:17;;;;;;;8.02;4.30;;;;;;;;;;5056519;28;20378;-71
2022/06/10 02:11:49;;;;;;;10.43;4.20;;;;;;;;;;5072251;28;20027;-72
2022/06/10 02:14:19;;;;;;;9.90;4.47;;;;;;;;;;5070366;28;20044;-72
2022/06/10 02:16:49;;;;;;;8.43;4.68;;;;;;;;;;5072142;28;20481;-71
2022/06/10 02:19:23;;;;;;;7.43;4.30;;;;;;;;;;5070353;28;20043;-72
2022/06/10 02:22:07;;;;;;;7.10;4.50;;;;;;;;;;5071627;28;20020;-72
2022/06/10 02:24:46;;;;;;;8.30;4.40;;;;;;;;;;5072007;28;20029;-71
2022/06/10 02:27:29;;;;;;;8.85;4.43;;;;;;;;;;5070477;28;20039;-71
2022/06/10 02:30:01;;;;;;;9.77;4.85;;;;;;;;;;5070274;28;20425;-71
2022/06/10 02:32:29;;;;;;;6.95;4.30;;;;;;;;;;5071983;28;20023;-71
2022/06/10 02:34:57;;;;;;;8.57;4.85;;;;;;;;;;5071702;28;20024;-72
2022/06/10 02:38:06;;;;;;;7.05;4.55;;;;;;;;;;5069969;28;20040;-72
2022/06/10 02:40:39;;;;;;;6.30;4.60;;;;;;;;;;5071278;28;20036;-72
2022/06/10 02:43:19;;;;;;;7.55;4.95;;;;;;;;;;5071739;28;20032;-71
2022/06/10 02:46:06;;;;;;;7.90;4.80;;;;;;;;;;5071543;28;20031;-71
2022/06/10 02:48:37;;;;;;;7.47;4.75;;;;;;;;;;5071640;28;20032;-71
2022/06/10 02:51:03;;;;;;;8.82;4.97;;;;;;;;;;5071630;28;20035;-71
2022/06/10 02:53:29;;;;;;;10.13;4.88;;;;;;;;;;5071482;28;20032;-72
2022/06/10 02:55:55;;;;;;;8.02;5.00;;;;;;;;;;5071776;28;20382;-71
2022/06/10 03:01:20;;;;;;;7.45;5.25;;;;;;;;;;5051410;28;20025;-72
2022/06/10 03:04:21;;;;;;;7.50;4.93;;;;;;;;;;5051340;28;20021;-72
2022/06/10 03:06:55;;;;;;;;;;;;;;;;;;5049865;28;20052;-72
2022/06/10 03:09:41;;;;;;;8.13;5.10;;;;;;;;;;5051318;28;19914;-72
2022/06/10 03:12:08;;;;;;;11.52;5.35;;;;;;;;;;5051174;28;20390;-72
2022/06/10 03:15:03;;;;;;;8.18;5.43;;;;;;;;;;5049739;28;20040;-71
2022/06/10 03:17:45;;;;;;;10.32;5.57;;;;;;;;;;5028612;28;20517;-71
2022/06/10 03:20:27;;;;;;;8.95;5.15;;;;;;;;;;5051158;28;20144;-71
2022/06/10 03:23:22;;;;;;;7.47;5.20;;;;;;;;;;5050948;28;20036;-72
2022/06/10 03:25:56;;;;;;;9.15;5.07;;;;;;;;;;5050916;28;20028;-71
2022/06/10 03:28:42;;;;;;;6.50;4.90;;;;;;;;;;5049526;28;20075;-71
2022/06/10 03:31:26;;;;;;;7.55;5.10;;;;;;;;;;5051325;28;20039;-71
2022/06/10 03:34:02;;;;;;;8.05;5.15;;;;;;;;;;5050240;28;20025;-71
2022/06/10 03:36:28;;;;;;;9.02;5.28;;;;;;;;;;5049178;28;20041;-72
2022/06/10 03:38:55;;;;;;;8.40;5.63;;;;;;;;;;5050866;28;20032;-72
2022/06/10 03:41:27;;;;;;;6.32;5.05;;;;;;;;;;5050613;28;20052;-72
2022/06/10 03:43:56;;;;;;;7.68;5.25;;;;;;;;;;5049283;28;20048;-72
2022/06/10 03:46:25;;;;;;;10.20;5.80;;;;;;;;;;5053291;28;20029;-72
2022/06/10 03:48:52;;;;;;;7.38;5.57;;;;;;;;;;5050837;28;20035;-71
2022/06/10 03:51:19;;;;;;;11.05;5.50;;;;;;;;;;5049358;28;20489;-72
2022/06/10 03:53:46;;;;;;;8.65;5.00;;;;;;;;;;5050706;28;20044;-72
2022/06/10 03:56:12;;;;;;;9.73;5.45;;;;;;;;;;5050798;28;20035;-72
2022/06/10 03:58:39;;;;;;;7.88;5.15;;;;;;;;;;5049260;28;20041;-72
2022/06/10 04:01:06;;;;;;;9.07;4.95;;;;;;;;;;5050719;28;20041;-72
2022/06/10 04:03:32;;;;;;;8.90;4.97;;;;;;;;;;5050559;28;20371;-72
2022/06/10 04:05:58;;;;;;;9.25;5.55;;;;;;;;;;5050329;28;20036;-71
2022/06/10 04:08:24;;;;;;;8.32;5.30;;;;;;;;;;5048511;28;20037;-72
2022/06/10 04:10:50;;;;;;;9.68;5.10;;;;;;;;;;5069849;28;20028;-72
2022/06/10 04:13:20;;;;;;;6.78;4.78;;;;;;;;;;5070172;28;20112;-72
2022/06/10 04:15:46;;;;;;;7.55;4.55;;;;;;;;;;5068409;28;20038;-72
2022/06/10 04:18:12;;;;;;;10.10;4.90;;;;;;;;;;5070279;28;20024;-72
2022/06/10 04:20:39;;;;;;;9.27;4.85;;;;;;;;;;5070344;28;20119;-72
2022/06/10 04:23:05;;;;;;;9.43;4.40;;;;;;;;;;5070150;28;20040;-72
2022/06/10 04:25:33;;;;;;;8.30;4.85;;;;;;;;;;5070078;28;20513;-72
2022/06/10 04:27:59;;;;;;;8.85;5.55;;;;;;;;;;5069980;28;20036;-72
2022/06/10 04:30:34;;;;;;;8.32;5.45;;;;;;;;;;5070180;28;20043;-72
2022/06/10 04:33:01;;;;;;;10.43;4.95;;;;;;;;;;5068879;28;20405;-72
2022/06/10 04:35:28;;;;;;;9.82;4.63;;;;;;;;;;5067231;28;20048;-72
2022/06/10 04:37:55;;;;;;;10.65;5.07;;;;;;;;;;5068743;28;20024;-72
2022/06/10 04:40:26;;;;;;;10.23;5.00;;;;;;;;;;5064060;28;20059;-72
2022/06/10 04:42:52;;;;;;;10.15;4.78;;;;;;;;;;5066953;28;20040;-70
2022/06/10 04:45:22;;;;;;;11.40;5.55;;;;;;;;;;5068822;28;20028;-71
2022/06/10 04:47:48;;;;;;;11.73;5.30;;;;;;;;;;5071621;28;20036;-71
2022/06/10 04:50:17;;;;;;;10.57;4.90;;;;;;;;;;5070944;28;20056;-71
2022/06/10 04:52:43;;;;;;;13.48;5.05;;;;;;;;;;5071774;28;20032;-71
2022/06/10 04:55:10;;;;;;;7.22;4.72;;;;;;;;;;5071018;28;20380;-71
2022/06/10 04:57:36;;;;;;;10.48;5.07;;;;;;;;;;5071876;28;20028;-71
2022/06/10 05:00:10;;;;;;;9.48;5.20;;;;;;;;;;5071816;28;20059;-71
2022/06/10 05:02:38;;;;;;;9.23;4.72;;;;;;;;;;5073418;28;20029;-71
2022/06/10 05:05:07;;;;;;;6.88;4.80;;;;;;;;;;5070718;28;20029;-71
2022/06/10 05:07:33;;;;;;;8.48;5.28;;;;;;;;;;5073483;28;20046;-71
2022/06/10 05:09:59;;;;;;;8.23;4.68;;;;;;;;;;5073432;28;20047;-71
2022/06/10 05:12:25;;;;;;;9.20;4.95;;;;;;;;;;5073124;28;20481;-71
2022/06/10 05:14:51;;;;;;;7.50;4.50;;;;;;;;;;5073123;28;20056;-71
2022/06/10 05:17:17;;;;;;;9.38;4.70;;;;;;;;;;5067208;28;20023;-73
2022/06/10 05:19:44;;;;;;;6.72;4.82;;;;;;;;;;5071975;28;20032;-70
2022/06/10 05:22:09;;;;;;;8.65;4.72;;;;;;;;;;5073087;28;20024;-66
2022/06/10 05:24:35;;;;;;;10.50;4.50;;;;;;;;;;5068101;28;20445;-68
2022/06/10 05:27:01;;;;;;;8.07;4.65;;;;;;;;;;5072458;28;20102;-66
2022/06/10 05:29:27;;;;;;;8.90;4.63;;;;;;;;;;5078454;28;20044;-77
2022/06/10 05:31:53;;;;;;;8.02;4.53;;;;;;;;;;5066634;28;20047;-75
2022/06/10 05:37:03;;;;;;;6.25;3.75;;;;;;;;;;5066551;28;20036;-76
2022/06/10 05:39:29;;;;;;;7.45;4.13;;;;;;;;;;5069433;28;20401;-73
2022/06/10 05:42:13;;;;;;;7.93;3.70;;;;;;;;;;5072567;28;20063;-74
2022/06/10 05:44:45;;;;;;;6.88;3.45;;;;;;;;;;5066877;28;20036;-73
2022/06/10 05:47:21;;;;;;;5.88;3.33;;;;;;;;;;5069121;28;20043;-74
2022/06/10 05:49:51;;;;;;;7.68;3.47;;;;;;;;;;5073199;28;20036;-73
2022/06/10 05:52:20;;;;;;;7.40;3.42;;;;;;;;;;5072275;28;20020;-68
2022/06/10 05:54:48;;;;;;;6.75;3.30;;;;;;;;;;5063431;28;20473;-79
2022/06/10 05:57:16;;;;;;;5.93;3.00;;;;;;;;;;5069478;28;20043;-69
2022/06/10 05:59:42;;;;;;;5.18;2.42;;;;;;;;;;5073610;28;20028;-70
2022/06/10 06:02:10;;;;;;;8.90;2.95;;;;;;;;;;5072657;28;20059;-69
2022/06/10 06:04:37;;;;;;;6.70;2.85;;;;;;;;;;5072394;28;20028;-76
2022/06/10 06:07:03;;;;;;;6.50;3.30;;;;;;;;;;5063756;28;20025;-77
2022/06/10 06:09:30;;;;;;;6.03;2.78;;;;;;;;;;5070100;28;20036;-74
2022/06/10 06:11:57;;;;;;;5.50;3.15;;;;;;;;;;5066697;28;20031;-75
2022/06/10 06:14:27;;;;;;;6.00;3.38;;;;;;;;;;5063729;28;20029;-77
2022/06/10 06:17:00;;;;;;;5.05;2.70;;;;;;;;;;5064773;28;20412;-79
2022/06/10 06:19:28;;;;;;;7.40;2.72;;;;;;;;;;5070962;28;20029;-75
2022/06/10 06:21:54;;;;;;;6.28;2.83;;;;;;;;;;5056107;28;20040;-75
2022/06/10 06:24:21;;;;;;;6.95;3.10;;;;;;;;;;5069399;28;20366;-73
2022/06/10 06:26:47;;;;;;;5.28;2.40;;;;;;;;;;5067797;28;21776;-76
2022/06/10 06:29:13;;;;;;;6.13;2.60;;;;;;;;;;5058780;28;20040;-74
2022/06/10 06:31:39;;;;;;;5.97;2.75;;;;;;;;;;5067177;28;20040;-77
2022/06/10 06:34:05;;;;;;;6.45;2.75;;;;;;;;;;5064209;28;20031;-76
2022/06/10 06:36:45;;;;;;;5.20;2.45;;;;;;;;;;5068329;28;20035;-74
2022/06/10 06:39:16;;;;;;;6.80;2.85;;;;;;;;;;5070523;28;20538;-72
2022/06/10 06:41:43;;;;;;;6.43;2.80;;;;;;;;;;5071075;28;20029;-73
2022/06/10 06:44:09;;;;;;;7.72;2.97;;;;;;;;;;5077294;28;20499;-72
2022/06/10 06:46:38;;;;;;;8.45;2.58;;;;;;;;;;5066249;28;20039;-79
2022/06/10 06:49:08;;;;;;;8.73;2.75;;;;;;;;;;5065238;28;20471;-80
2022/06/10 06:51:36;;;;;;;3.67;2.20;;;;;;;;;;5059607;28;20036;-68
2022/06/10 06:54:02;;;;;;;7.15;2.67;;;;;;;;;;5071783;28;20020;-69
2022/06/10 06:56:28;;;;;;;6.85;2.40;;;;;;;;;;5071604;28;20028;-70
2022/06/10 06:58:55;;;;;;;3.60;2.35;;;;;;;;;;5067162;28;20037;-74
2022/06/10 07:01:21;;;;;;;7.38;2.58;;;;;;;;;;5067798;28;20512;-69
2022/06/10 07:03:47;;;;;;;5.22;2.50;;;;;;;;;;5065164;28;20057;-69
2022/06/10 07:06:13;;;;;;;7.75;2.78;;;;;;;;;;5063215;28;20021;-69
2022/06/10 07:08:39;;;;;;;6.20;2.40;;;;;;;;;;5067198;28;20028;-68
2022/06/10 07:11:07;;;;;;;5.45;2.20;;;;;;;;;;5070130;28;20078;-68
2022/06/10 07:13:33;;;;;;;5.20;2.45;;;;;;;;;;5070680;28;20024;-68
2022/06/10 07:16:03;;;;;;;5.35;2.10;;;;;;;;;;5069902;28;20419;-69
2022/06/10 07:18:30;;;;;;;6.50;2.23;;;;;;;;;;5070399;28;20031;-69
2022/06/10 07:20:56;;;;;;;5.55;2.25;;;;;;;;;;5069616;28;20465;-69
2022/06/10 07:23:22;;;;;;;5.53;2.40;;;;;;;;;;5069298;28;20032;-68
2022/06/10 07:25:48;;;;;;;7.50;2.88;;;;;;;;;;5088031;28;20488;-69
2022/06/10 07:28:14;;;;;;;5.25;2.40;;;;;;;;;;5089961;28;20037;-69
2022/06/10 07:30:42;;;;;;;4.43;2.00;;;;;;;;;;5073421;28;20036;-79
2022/06/10 07:33:09;;;;;;;5.88;2.72;;;;;;;;;;5058662;28;20024;-85
2022/06/10 07:35:35;;;;;;;7.90;2.75;;;;;;;;;;5065210;28;20095;-76
2022/06/10 07:38:01;;;;;;;5.82;2.30;;;;;;;;;;5075141;28;20031;-76
2022/06/10 07:43:35;;;;;;;7.55;2.70;;;;;;;;;;5015618;28;20034;-79
2022/06/10 07:46:03;;;;;;;5.00;2.40;;;;;;;;;;5044675;28;20128;-77
2022/06/10 07:48:30;;;;;;;6.85;2.70;;;;;;;;;;5062256;28;20046;-76
2022/06/10 07:50:56;;;;;;;10.18;3.10;;;;;;;;;;5060664;28;20021;-77
2022/06/10 07:53:22;;;;;;;7.47;2.70;;;;;;;;;;5064239;28;20033;-76
2022/06/10 07:55:48;;;;;;;7.07;2.50;;;;;;;;;;5069597;28;20027;-78
2022/06/10 07:58:16;;;;;;;5.20;2.50;;;;;;;;;;5064512;28;20370;-73
2022/06/10 08:00:43;;;;;;;6.32;2.45;;;;;;;;;;5065396;28;20028;-72
2022/06/10 08:03:09;;;;;;;6.05;2.30;;;;;;;;;;5067761;28;20033;-72
2022/06/10 08:05:35;;;;;;;6.47;2.17;;;;;;;;;;5063171;28;20473;-72
2022/06/10 08:08:02;;;;;;;8.15;2.42;;;;;;;;;;5065790;28;20043;-72
2022/06/10 08:10:32;;;;;;;6.97;2.28;;;;;;;;;;5070531;28;20027;-72
2022/06/10 08:12:58;;;;;;;6.00;2.60;;;;;;;;;;5067755;28;20024;-72
2022/06/10 08:15:25;;;;;;;8.15;2.58;;;;;;;;;;5062781;28;20351;-72
2022/06/10 08:17:52;;;;;;;8.02;2.00;;;;;;;;;;5071200;28;20404;-72
2022/06/10 08:20:21;;;;;;;8.43;2.17;;;;;;;;;;5078549;28;20024;-72
2022/06/10 08:22:48;;;;;;;6.85;2.42;;;;;;;;;;5078579;28;20032;-72
2022/06/10 08:25:15;;;;;;;6.93;2.63;;;;;;;;;;5063258;28;20036;-72
2022/06/10 08:27:41;;;;;;;8.27;2.38;;;;;;;;;;5070585;28;20025;-71
2022/06/10 08:30:14;;;;;;;4.70;2.13;;;;;;;;;;5065427;28;20065;-72
2022/06/10 08:32:39;;;;;;;4.90;2.38;;;;;;;;;;5064316;28;20138;-71
2022/06/10 08:35:06;;;;;;;7.20;2.33;;;;;;;;;;5074958;28;20052;-71
2022/06/10 08:37:32;;;;;;;5.20;2.45;;;;;;;;;;5084674;28;20484;-71
2022/06/10 08:39:58;;;;;;;5.68;2.28;;;;;;;;;;5088288;28;20035;-71
2022/06/10 08:42:41;;;;;;;7.72;2.20;;;;;;;;;;5088729;28;20016;-71
2022/06/10 08:45:27;;;;;;;5.50;2.00;;;;;;;;;;5082746;28;20497;-72
2022/06/10 08:48:06;;;;;;;6.18;2.40;;;;;;;;;;5063220;28;20036;-72
2022/06/10 08:50:32;;;;;;;5.55;2.38;;;;;;;;;;5060939;28;20041;-73
2022/06/10 08:53:14;;;;;;;7.53;2.50;;;;;;;;;;5063513;28;20040;-73
2022/06/10 08:56:00;;;;;;;5.60;2.30;;;;;;;;;;5063606;28;20020;-76
2022/06/10 08:59:02;;;;;;;9.40;2.63;;;;;;;;;;5061307;28;20045;-76
2022/06/10 09:01:30;;;;;;;6.07;2.08;;;;;;;;;;4998464;28;20181;-76
2022/06/10 09:04:31;;;;;;;8.13;2.42;;;;;;;;;;5049435;28;20037;-71
2022/06/10 09:07:05;;;;;;;7.65;1.90;;;;;;;;;;5062475;28;20024;-69
2022/06/10 09:09:33;;;;;;;5.15;2.20;;;;;;;;;;5069394;28;20025;-69
2022/06/10 09:12:09;;;;;;;5.70;1.70;;;;;;;;;;5071874;28;20017;-69
2022/06/10 09:14:36;;;;;;;5.85;2.20;;;;;;;;;;5075470;28;20024;-68
2022/06/10 09:17:30;;;;;;;4.70;2.20;;;;;;;;;;5072900;28;20020;-69
2022/06/10 09:20:25;;;;;;;6.00;1.98;;;;;;;;;;5055850;28;20031;-69
2022/06/10 09:22:57;;;;;;;4.53;1.55;;;;;;;;;;5076099;28;20028;-69
2022/06/10 09:25:37;;;;;;;7.32;1.85;;;;;;;;;;5083999;28;20032;-69
2022/06/10 09:28:04;;;;;;;4.50;1.70;;;;;;;;;;5061616;28;20024;-69
2022/06/10 09:30:53;;;;;;;4.30;2.00;;;;;;;;;;5080612;28;20036;-69
2022/06/10 09:33:37;;;;;;;6.03;1.90;;;;;;;;;;5082314;28;20032;-68
2022/06/10 09:36:18;;;;;;;6.22;1.90;;;;;;;;;;5062400;28;20024;-69
2022/06/10 09:38:50;;;;;;;5.82;2.20;;;;;;;;;;5080907;28;20040;-69
2022/06/10 09:41:28;;;;;;;5.10;1.90;;;;;;;;;;5074516;28;20040;-69
2022/06/10 09:44:21;;;;;;;6.60;2.00;;;;;;;;;;5059840;28;20020;-69
2022/06/10 09:47:34;;;;;;;6.13;1.90;;;;;;;;;;5081599;28;20036;-69
2022/06/10 09:50:21;;;;;;;5.47;2.03;;;;;;;;;;5061433;28;20031;-69
2022/06/10 09:53:05;;;;;;;7.03;2.20;;;;;;;;;;5081729;28;20043;-69
2022/06/10 09:55:43;;;;;;;7.22;1.85;;;;;;;;;;5088973;28;20023;-69
2022/06/10 09:58:23;;;;;;;4.25;2.10;;;;;;;;;;5078084;28;20024;-68
2022/06/10 10:01:10;;;;;;;4.97;1.95;;;;;;;;;;5081175;28;20042;-68
2022/06/10 10:04:08;;;;;;;5.72;1.90;;;;;;;;;;5087137;28;20035;-68
2022/06/10 10:07:00;;;;;;;6.32;2.00;;;;;;;;;;5081196;28;20028;-69
2022/06/10 10:09:44;;;;;;;5.07;2.10;;;;;;;;;;5071131;28;20069;-69
2022/06/10 10:12:37;;;;;;;9.35;2.50;;;;;;;;;;5062780;28;20043;-70
2022/06/10 10:15:23;;;;;;;2.92;1.75;;;;;;;;;;5078779;28;20028;-69
2022/06/10 10:18:20;;;;;;;8.00;2.15;;;;;;;;;;5088494;28;20035;-69
2022/06/10 10:21:08;;;;;;;5.63;2.25;;;;;;;;;;5083168;28;20035;-69
2022/06/10 10:23:39;;;;;;;5.82;2.10;;;;;;;;;;5075208;28;20037;-69
2022/06/10 10:26:15;;;;;;;5.03;2.53;;;;;;;;;;5086874;28;20028;-69
2022/06/10 10:28:42;;;;;;;8.98;4.32;;;;;;;;;;5082138;28;20042;-69
2022/06/10 10:31:23;;;;;;;8.30;2.13;;;;;;;;;;5066740;28;20397;-69
2022/06/10 10:33:49;;;;;;;9.20;2.38;;;;;;;;;;5049060;28;20449;-70
2022/06/10 10:36:32;;;;;;;5.97;1.90;;;;;;;;;;5053896;28;20028;-70
2022/06/10 10:39:12;;;;;;;4.95;2.00;;;;;;;;;;5068457;28;20481;-70
2022/06/10 10:41:42;;;;;;;;;;;;;;;;;;5051346;28;20040;-68
2022/06/10 10:44:38;;;;;;;6.13;2.53;;;;;;;;;;5048406;28;19912;-67
2022/06/10 10:47:10;;;;;;;15.85;10.18;;;;;;;;;;5066365;28;20020;-69
2022/06/10 10:49:37;;;;;;;14.75;10.15;;;;;;;;;;5049943;28;20033;-69
2022/06/10 10:52:13;;;;;;;6.60;2.20;;;;;;;;;;5050144;28;20040;-73
2022/06/10 10:54:42;;;;;;;8.52;2.85;;;;;;;;;;5073718;28;20032;-72
2022/06/10 10:57:22;;;;;;;12.43;7.97;;;;;;;;;;5069992;28;20024;-73
2022/06/10 10:59:56;;;;;;;7.57;2.50;;;;;;;;;;5070214;28;20040;-73
2022/06/10 11:02:28;;;;;;;3.40;1.65;;;;;;;;;;5061081;28;20031;-80
2022/06/10 11:05:17;;;;;;;7.55;2.17;;;;;;;;;;5049927;28;20033;-78
2022/06/10 11:07:45;;;;;;;7.05;1.83;;;;;;;;;;5055679;28;20024;-79
2022/06/10 11:10:23;;;;;;;5.95;1.90;;;;;;;;;;5064686;28;20024;-79
2022/06/10 11:12:49;;;;;;;6.90;1.92;;;;;;;;;;5060271;28;20039;-84
2022/06/10 11:15:27;;;;;;;6.22;1.90;;;;;;;;;;5063231;28;20028;-85
2022/06/10 11:17:55;;;;;;;5.00;1.83;;;;;;;;;;5082500;28;20043;-88
2022/06/10 11:20:23;;;;;;;6.25;1.85;;;;;;;;;;5082883;28;20035;-75
2022/06/10 11:22:49;;;;;;;6.75;2.17;;;;;;;;;;5082467;28;20027;-73
2022/06/10 11:25:27;;;;;;;5.80;2.17;;;;;;;;;;5079403;28;20038;-73
2022/06/10 11:28:00;;;;;;;7.30;1.98;;;;;;;;;;5074220;28;20031;-73
2022/06/10 11:30:42;;;;;;;4.13;1.60;;;;;;;;;;5078686;28;20412;-76
2022/06/10 11:33:25;;;;;;;5.32;1.90;;;;;;;;;;5066761;28;20163;-75
2022/06/10 11:36:04;;;;;;;6.88;1.73;;;;;;;;;;5075540;28;20408;-76
2022/06/10 11:38:32;;;;;;;5.15;1.75;;;;;;;;;;5070381;28;20039;-75
2022/06/10 11:41:33;;;;;;;4.97;1.75;;;;;;;;;;5079683;28;20179;-74
2022/06/10 11:44:14;;;;;;;7.45;1.90;;;;;;;;;;5006826;28;20034;-73
2022/06/10 11:46:58;;;;;;;7.25;2.60;;;;;;;;;;5068125;28;20413;-72
2022/06/10 11:49:26;;;;;;;4.78;1.85;;;;;;;;;;5067116;28;20022;-75
2022/06/10 11:52:01;;;;;;;5.40;2.28;;;;;;;;;;5071332;28;20025;-75
2022/06/10 11:54:41;;;;;;;5.75;1.80;;;;;;;;;;5084395;28;20041;-74
2022/06/10 12:00:03;;;;;;;7.15;1.90;;;;;;;;;;5077832;28;20036;-76
2022/06/10 12:02:40;;;;;;;6.05;2.05;;;;;;;;;;5057349;28;20028;-76
2022/06/10 12:05:18;;;;;;;5.63;1.90;;;;;;;;;;5079882;28;20389;-75
2022/06/10 12:08:13;;;;;;;6.20;1.70;;;;;;;;;;5080949;28;20279;-76
2022/06/10 12:10:48;;;;;;;7.57;1.88;;;;;;;;;;5063877;28;20036;-75
2022/06/10 12:13:15;;;;;;;5.05;1.70;;;;;;;;;;5080889;28;20036;-75
2022/06/10 12:15:49;;;;;;;5.55;1.77;;;;;;;;;;5076286;28;20020;-77
2022/06/10 12:18:17;;;;;;;3.58;1.60;;;;;;;;;;5079298;28;20385;-70
2022/06/10 12:20:49;;;;;;;6.18;1.63;;;;;;;;;;5080936;28;20035;-72
2022/06/10 12:23:25;;;;;;;3.20;1.45;;;;;;;;;;5077234;28;20032;-76
2022/06/10 12:26:05;;;;;;;7.75;1.90;;;;;;;;;;5077218;28;20029;-75
2022/06/10 12:28:36;;;;;;;4.30;1.75;;;;;;;;;;5061271;28;20037;-77
2022/06/10 12:31:37;;;;;;;9.57;2.03;;;;;;;;;;5064968;28;20477;-75
2022/06/10 12:34:09;;;;;;;4.68;1.67;;;;;;;;;;5080337;28;20032;-75
2022/06/10 12:36:42;;;;;;;4.75;1.75;;;;;;;;;;5078533;28;20025;-77
2022/06/10 12:39:36;;;;;;;6.90;1.80;;;;;;;;;;5079376;28;20024;-75
2022/06/10 12:42:18;;;;;;;5.45;1.80;;;;;;;;;;5082346;28;20365;-83
2022/06/10 12:44:50;;;;;;;4.53;1.70;;;;;;;;;;5073066;28;20399;-75
2022/06/10 12:47:28;;;;;;;12.40;9.43;;;;;;;;;;5078070;28;20028;-73
2022/06/10 12:49:59;;;;;;;8.52;3.40;;;;;;;;;;5074465;28;20036;-87
2022/06/10 12:52:49;;;;;;;5.30;1.75;;;;;;;;;;5080658;28;20500;-83
2022/06/10 12:55:37;;;;;;;4.05;1.63;;;;;;;;;;5077244;28;20036;-78
2022/06/10 12:58:03;;;;;;;8.57;1.70;;;;;;;;;;5075661;28;20036;-77
2022/06/10 13:00:38;;;;;;;4.68;1.67;;;;;;;;;;5071325;28;20048;-78
2022/06/10 13:03:13;;;;;;;6.93;1.92;;;;;;;;;;5079230;28;20492;-76
2022/06/10 13:05:44;;;;;;;4.45;1.60;;;;;;;;;;5082520;28;20468;-76
2022/06/10 13:08:47;;;;;;;3.85;1.60;;;;;;;;;;5101285;28;20024;-82
2022/06/10 13:11:28;;;;;;;6.88;1.73;;;;;;;;;;5083105;28;20040;-82
2022/06/10 13:14:30;;;;;;;5.05;1.65;;;;;;;;;;5096943;28;20035;-82
2022/06/10 13:16:58;;;;;;;3.60;1.40;;;;;;;;;;5075983;28;20036;-84
2022/06/10 13:19:39;;;;;;;5.60;1.67;;;;;;;;;;5102325;28;20008;-83
2022/06/10 13:22:32;;;;;;;4.68;1.55;;;;;;;;;;5093674;28;20044;-73
2022/06/10 13:24:58;;;;;;;3.28;1.42;;;;;;;;;;5083980;28;20507;-74
2022/06/10 13:27:36;;;;;;;6.50;1.70;;;;;;;;;;5083828;28;20024;-76
2022/06/10 13:30:14;;;;;;;5.68;1.70;;;;;;;;;;5080634;28;20089;-74
2022/06/10 13:32:42;;;;;;;3.65;1.42;;;;;;;;;;5075758;28;20653;-68
2022/06/10 13:35:19;;;;;;;5.80;1.80;;;;;;;;;;5074082;28;20025;-74
2022/06/10 13:37:47;;;;;;;6.50;1.83;;;;;;;;;;5085339;28;20047;-75
2022/06/10 13:40:20;;;;;;;7.43;2.05;;;;;;;;;;5083863;28;20043;-70
2022/06/10 13:42:50;;;;;;;8.65;4.75;;;;;;;;;;5081511;28;20029;-70
2022/06/10 13:45:28;;;;;;;5.30;1.65;;;;;;;;;;5081549;28;20052;-69
2022/06/10 13:48:06;;;;;;;6.20;1.80;;;;;;;;;;5079221;28;20016;-70
2022/06/10 13:53:18;;;;;;;4.55;1.70;;;;;;;;;;5082883;28;20034;-70
2022/06/10 13:55:56;;;;;;;6.40;1.63;;;;;;;;;;5077911;28;20047;-74
2022/06/10 13:58:25;;;;;;;4.10;1.83;;;;;;;;;;5081498;28;20470;-73
2022/06/10 14:01:06;;;;;;;4.05;1.75;;;;;;;;;;5083020;28;20031;-73
2022/06/10 14:03:46;;;;;;;4.25;1.52;;;;;;;;;;5071671;28;20031;-73
2022/06/10 14:06:12;;;;;;;8.85;1.95;;;;;;;;;;5075723;28;20020;-73
2022/06/10 14:09:00;;;;;;;5.55;1.70;;;;;;;;;;5078870;28;20370;-72
2022/06/10 14:11:31;;;;;;;5.32;1.80;;;;;;;;;;5068433;28;20031;-73
2022/06/10 14:14:01;;;;;;;5.38;1.63;;;;;;;;;;5084580;28;20027;-73
2022/06/10 14:16:30;;;;;;;6.30;1.87;;;;;;;;;;5080958;28;20425;-73
2022/06/10 14:18:56;;;;;;;6.53;1.92;;;;;;;;;;5078522;28;20408;-73
2022/06/10 14:21:23;;;;;;;4.95;1.65;;;;;;;;;;5084374;28;20023;-73
2022/06/10 14:24:06;;;;;;;6.30;1.52;;;;;;;;;;5084308;28;20032;-73
2022/06/10 14:26:34;;;;;;;11.43;1.80;;;;;;;;;;5073610;28;20025;-73
2022/06/10 14:29:15;;;;;;;3.70;1.60;;;;;;;;;;5080939;28;20044;-72
2022/06/10 14:31:46;;;;;;;4.63;1.65;;;;;;;;;;5084413;28;20027;-73
2022/06/10 14:34:18;;;;;;;5.93;2.10;;;;;;;;;;5082990;28;20043;-73
2022/06/10 14:36:57;;;;;;;6.53;1.80;;;;;;;;;;5073628;28;20490;-72
2022/06/10 14:39:26;;;;;;;4.72;1.90;;;;;;;;;;5083813;28;20518;-73
2022/06/10 14:41:57;;;;;;;7.35;1.80;;;;;;;;;;5084235;28;20043;-72
2022/06/10 14:44:31;;;;;;;6.07;1.60;;;;;;;;;;5079485;28;20041;-72
2022/06/10 14:47:05;;;;;;;6.13;1.90;;;;;;;;;;5070729;28;20369;-72
2022/06/10 14:49:45;;;;;;;4.85;1.80;;;;;;;;;;5071676;28;20035;-72
2022/06/10 14:52:25;;;;;;;5.32;1.70;;;;;;;;;;5080176;28;20024;-72
2022/06/10 14:54:52;;;;;;;5.70;1.85;;;;;;;;;;5078518;28;20576;-72
2022/06/10 14:57:26;;;;;;;4.50;1.65;;;;;;;;;;5083011;28;20036;-71
2022/06/10 14:59:52;;;;;;;7.72;2.10;;;;;;;;;;5083972;28;20027;-72
2022/06/10 15:02:19;;;;;;;7.20;2.03;;;;;;;;;;5081788;28;20044;-72
2022/06/10 15:07:34;;;;;;;5.82;1.65;;;;;;;;;;5083948;28;20032;-72
2022/06/10 15:10:01;;;;;;;8.03;2.03;;;;;;;;;;5082214;28;20048;-72
2022/06/10 15:12:29;;;;;;;4.25;1.63;;;;;;;;;;5080316;28;20040;-72
2022/06/10 15:14:56;;;;;;;6.32;1.80;;;;;;;;;;5079839;28;20385;-72
2022/06/10 15:17:27;;;;;;;4.50;1.85;;;;;;;;;;5082862;28;20024;-72
2022/06/10 15:19:53;;;;;;;5.00;2.00;;;;;;;;;;5083613;28;20050;-72
2022/06/10 15:22:28;;;;;;;6.75;1.80;;;;;;;;;;5081037;28;20545;-72
2022/06/10 15:25:02;;;;;;;7.30;2.05;;;;;;;;;;5068251;28;20033;-72
2022/06/10 15:27:28;;;;;;;4.30;1.55;;;;;;;;;;5069872;28;20029;-72
2022/06/10 15:29:55;;;;;;;4.70;1.83;;;;;;;;;;5077392;28;20024;-71
2022/06/10 15:32:21;;;;;;;4.65;1.60;;;;;;;;;;5066470;28;20064;-71
2022/06/10 15:43:05;;;;;;;5.65;1.70;;;;;;;;;;5067442;28;20028;-72
2022/06/10 15:45:31;;;;;;;5.57;1.65;;;;;;;;;;5074900;28;20175;-72
2022/06/10 15:47:57;;;;;;;6.05;1.88;;;;;;;;;;5075471;28;20035;-72